createdAt,value
2023-01-11T00:02:07.645Z,66.63
2023-01-11T00:07:13.634Z,69.18
2023-01-11T00:12:19.971Z,86.90
2023-01-11T00:22:31.302Z,65.97
2023-01-11T00:27:37.202Z,66.38
2023-01-11T00:32:44.039Z,60.40
2023-01-11T00:37:50.195Z,55.88
2023-01-11T00:43:14.339Z,59.03
2023-01-11T00:48:20.254Z,64.38
2023-01-11T00:53:26.228Z,60.60
2023-01-11T00:58:32.264Z,67.63
2023-01-11T01:03:39.802Z,58.70
2023-01-11T01:08:45.658Z,62.65
2023-01-11T01:14:17.910Z,60.72
2023-01-11T01:19:24.464Z,61.90
2023-01-11T01:24:32.451Z,67.90
2023-01-11T01:29:38.688Z,69.03
2023-01-11T01:34:46.572Z,73.03
2023-01-11T01:39:52.769Z,81.60
2023-01-11T01:45:06.062Z,81.22
2023-01-11T01:50:16.393Z,72.07
2023-01-11T01:55:33.289Z,54.03
2023-01-11T02:00:41.724Z,63.75
2023-01-11T02:05:48.537Z,57.42
2023-01-11T02:10:55.860Z,57.60
2023-01-11T02:16:11.029Z,69.57
2023-01-11T02:21:26.336Z,69.80
2023-01-11T02:26:50.350Z,70.70
2023-01-11T02:32:02.244Z,64.15
2023-01-11T02:37:32.486Z,81.07
2023-01-11T02:43:11.485Z,100.43
2023-01-11T02:48:20.049Z,104.50
2023-01-11T02:53:28.570Z,90.68
2023-01-11T02:58:37.007Z,103.00
2023-01-11T03:03:43.638Z,110.15
2023-01-11T03:09:11.048Z,109.13
2023-01-11T03:14:30.425Z,107.18
2023-01-11T03:19:45.709Z,111.97
2023-01-11T03:24:58.352Z,111.93
2023-01-11T03:30:12.247Z,109.00
2023-01-11T03:35:21.384Z,111.60
2023-01-11T03:40:31.573Z,120.55
2023-01-11T03:45:40.479Z,93.95
2023-01-11T03:50:48.105Z,112.35
2023-01-11T03:56:00.391Z,122.57
2023-01-11T04:01:06.990Z,110.97
2023-01-11T04:06:17.479Z,125.05
2023-01-11T04:11:25.362Z,105.68
2023-01-11T04:16:32.810Z,128.50
2023-01-11T04:21:40.329Z,121.00
2023-01-11T04:26:48.175Z,118.75
2023-01-11T04:31:58.045Z,104.82
2023-01-11T04:37:06.489Z,120.20
2023-01-11T04:42:23.872Z,124.68
2023-01-11T04:47:34.936Z,125.07
2023-01-11T04:52:54.107Z,120.63
2023-01-11T04:58:02.477Z,124.57
2023-01-11T05:03:15.645Z,127.68
2023-01-11T05:08:37.013Z,117.03
2023-01-11T05:13:49.340Z,119.30
2023-01-11T05:19:09.792Z,133.77
2023-01-11T05:24:26.982Z,121.25
2023-01-11T05:29:39.198Z,127.43
2023-01-11T05:34:57.203Z,133.32
2023-01-11T05:40:07.497Z,133.68
2023-01-11T05:51:02.484Z,109.47
2023-01-11T05:56:23.417Z,106.67
2023-01-11T06:01:44.838Z,111.00
2023-01-11T06:06:57.297Z,89.78
2023-01-11T06:12:19.619Z,84.47
2023-01-11T06:17:39.584Z,89.00
2023-01-11T06:22:46.178Z,83.83
2023-01-11T06:28:00.453Z,74.35
2023-01-11T06:33:11.949Z,81.85
2023-01-11T06:38:22.015Z,74.28
2023-01-11T06:43:42.916Z,86.10
2023-01-11T06:48:56.079Z,82.22
2023-01-11T06:54:07.657Z,79.22
2023-01-11T06:59:17.261Z,80.45
2023-01-11T07:04:29.850Z,82.38
2023-01-11T07:09:41.524Z,81.72
2023-01-11T07:14:49.107Z,78.35
2023-01-11T07:19:55.718Z,86.32
2023-01-11T07:25:10.405Z,91.13
2023-01-11T07:30:20.191Z,86.18
2023-01-11T07:35:31.894Z,84.43
2023-01-11T07:40:41.652Z,90.78
2023-01-11T07:46:12.154Z,93.43
2023-01-11T07:51:22.165Z,95.68
2023-01-11T07:56:32.231Z,97.70
2023-01-11T08:01:41.766Z,99.97
2023-01-11T08:06:49.288Z,96.93
2023-01-11T08:12:17.460Z,106.50
2023-01-11T08:17:24.255Z,72.57
2023-01-11T08:22:30.627Z,87.60
2023-01-11T08:27:40.733Z,80.07
2023-01-11T08:32:47.929Z,101.60
2023-01-11T08:37:56.046Z,101.45
2023-01-11T08:43:04.916Z,105.38
2023-01-11T08:48:15.058Z,102.22
2023-01-11T08:53:22.702Z,104.45
2023-01-11T08:58:30.464Z,112.05
2023-01-11T09:03:36.970Z,129.35
2023-01-11T09:08:44.492Z,115.28
2023-01-11T09:13:51.605Z,110.88
2023-01-11T09:18:58.164Z,120.05
2023-01-11T09:24:05.316Z,127.03
2023-01-11T09:29:12.271Z,148.65
2023-01-11T09:34:22.725Z,110.53
2023-01-11T09:39:30.406Z,122.88
2023-01-11T09:44:39.385Z,135.13
2023-01-11T09:49:57.833Z,135.73
2023-01-11T09:55:04.247Z,131.50
2023-01-11T10:05:25.451Z,136.27
2023-01-11T10:18:41.879Z,150.07
2023-01-11T10:22:06.388Z,144.25
2023-01-11T10:27:19.029Z,143.02
2023-01-11T10:32:57.672Z,154.15
2023-01-11T10:38:46.217Z,161.95
2023-01-11T10:43:58.232Z,148.15
2023-01-11T10:49:18.956Z,150.82
2023-01-11T10:54:38.658Z,176.15
2023-01-11T10:59:58.066Z,173.15
2023-01-11T11:05:17.723Z,155.00
2023-01-11T11:10:42.206Z,175.40
2023-01-11T11:21:13.634Z,181.18
2023-01-11T11:26:28.334Z,188.20
2023-01-11T11:31:44.622Z,172.00
2023-01-11T11:36:58.028Z,194.85
2023-01-11T11:47:21.257Z,237.93
2023-01-11T11:52:36.623Z,189.07
2023-01-11T11:57:52.090Z,158.13
2023-01-11T12:03:06.117Z,185.32
2023-01-11T12:08:19.008Z,190.70
2023-01-11T12:14:00.241Z,168.77
2023-01-11T12:19:29.083Z,162.48
2023-01-11T12:24:56.440Z,188.52
2023-01-11T12:30:36.009Z,168.32
2023-01-11T12:41:53.447Z,177.68
2023-01-11T12:47:40.040Z,173.20
2023-01-11T12:52:54.206Z,182.68
2023-01-11T12:58:22.061Z,174.68
2023-01-11T13:09:07.875Z,152.25
2023-01-11T13:14:43.977Z,154.80
2023-01-11T13:20:21.580Z,144.13
2023-01-11T13:25:40.859Z,132.75
2023-01-11T13:42:20.345Z,84.68
2023-01-11T13:47:56.215Z,88.15
2023-01-11T13:53:36.492Z,89.18
2023-01-11T13:59:08.677Z,97.60
2023-01-11T14:10:16.663Z,87.28
2023-01-11T14:21:31.842Z,85.22
2023-01-11T14:33:36.348Z,83.00
2023-01-11T14:39:34.001Z,96.57
2023-01-11T14:44:52.117Z,89.80
2023-01-11T14:50:28.696Z,90.75
2023-01-11T14:55:59.351Z,84.07
2023-01-11T15:01:18.645Z,86.72
2023-01-11T15:07:00.815Z,82.32
2023-01-11T15:12:40.313Z,84.85
2023-01-11T15:18:12.409Z,80.13
2023-01-11T15:23:31.020Z,81.22
2023-01-11T15:29:20.819Z,83.22
2023-01-11T15:40:28.308Z,81.80
2023-01-11T15:46:48.006Z,78.65
2023-01-11T15:52:03.806Z,85.95
2023-01-11T15:57:34.156Z,83.13
2023-01-11T16:03:01.676Z,81.00
2023-01-11T16:08:28.619Z,80.63
2023-01-11T16:13:55.672Z,71.43
2023-01-11T16:19:08.591Z,68.47
2023-01-11T16:24:28.621Z,71.82
2023-01-11T16:29:47.255Z,70.53
2023-01-11T16:35:02.599Z,69.30
2023-01-11T16:40:33.722Z,62.72
2023-01-11T16:45:48.435Z,67.20
2023-01-11T16:51:06.846Z,61.05
2023-01-11T16:56:13.121Z,54.95
2023-01-11T17:01:19.457Z,57.17
2023-01-11T17:06:26.745Z,50.17
2023-01-11T17:11:38.270Z,52.38
2023-01-11T17:16:54.896Z,50.60
2023-01-11T17:22:12.072Z,50.30
2023-01-11T17:27:24.025Z,45.67
2023-01-11T17:32:38.756Z,45.38
2023-01-11T17:37:47.197Z,42.28
2023-01-11T17:43:11.881Z,45.58
2023-01-11T17:48:20.254Z,39.28
2023-01-11T17:53:29.994Z,42.15
2023-01-11T17:58:37.099Z,42.22
2023-01-11T18:03:46.030Z,49.10
2023-01-11T18:08:53.036Z,43.78
2023-01-11T18:14:00.391Z,49.55
2023-01-11T18:19:24.345Z,46.58
2023-01-11T18:24:32.861Z,49.40
2023-01-11T18:29:44.029Z,55.25
2023-01-11T18:34:51.729Z,36.58
2023-01-11T18:39:58.108Z,28.95
2023-01-11T18:45:04.031Z,24.45
2023-01-11T18:50:11.203Z,46.00
2023-01-11T18:55:17.457Z,52.65
2023-01-11T19:00:23.471Z,42.50
2023-01-11T19:05:29.633Z,48.25
2023-01-11T19:15:42.093Z,56.03
2023-01-11T19:20:48.443Z,50.92
2023-01-11T19:30:59.892Z,48.10
2023-01-11T19:36:10.025Z,50.38
2023-01-11T19:41:18.130Z,71.60
2023-01-11T19:46:31.530Z,60.88
2023-01-11T19:51:38.903Z,58.10
2023-01-11T19:56:45.770Z,64.38
2023-01-11T20:01:51.883Z,62.45
2023-01-11T20:06:58.161Z,63.42
2023-01-11T20:12:04.076Z,72.50
2023-01-11T20:17:10.444Z,65.45
2023-01-11T20:27:21.789Z,65.95
2023-01-11T20:32:40.878Z,67.55
2023-01-11T20:37:49.014Z,64.70
2023-01-11T20:42:55.393Z,64.25
2023-01-11T20:48:03.805Z,61.10
2023-01-11T20:53:09.648Z,61.42
2023-01-11T20:58:15.821Z,52.72
2023-01-11T21:03:22.170Z,51.15
2023-01-11T21:13:33.232Z,44.00
2023-01-11T21:18:41.698Z,48.53
2023-01-11T21:23:48.333Z,43.40
2023-01-11T21:28:56.628Z,47.40
2023-01-11T21:34:02.693Z,49.55
2023-01-11T21:39:10.977Z,47.97
2023-01-11T21:44:18.097Z,35.15
2023-01-11T21:49:26.067Z,47.78
2023-01-11T21:54:32.536Z,42.55
2023-01-11T21:59:38.562Z,39.90
2023-01-11T22:04:44.652Z,44.40
2023-01-11T22:10:04.242Z,39.90
2023-01-11T22:15:12.103Z,37.42
2023-01-11T22:20:19.121Z,46.17
2023-01-11T22:25:25.433Z,46.17
2023-01-11T22:35:36.988Z,46.08
2023-01-11T22:45:58.081Z,48.17
2023-01-11T22:51:08.404Z,43.67
2023-01-11T22:56:15.236Z,40.67
2023-01-11T23:01:24.273Z,42.35
2023-01-11T23:06:37.924Z,43.97
2023-01-11T23:12:02.247Z,45.28
2023-01-11T23:17:09.079Z,53.10
2023-01-11T23:22:18.462Z,51.67
2023-01-11T23:27:24.633Z,49.78
2023-01-11T23:32:31.396Z,55.72
2023-01-11T23:42:42.443Z,46.17
2023-01-11T23:47:48.589Z,42.83
2023-01-11T23:52:54.729Z,46.70
